• Join FlightAware (Why Join?)
  • Login
  • US Flag 
 
06:01AM EST


 

Airport Tracker/Info


-or-


 

Live Flight TrackerFlight Track Log ✈ KAP17 ✈ 10-May-2013 ✈ KBOS - KLEB

Flight Track Log - Related Links

Times and Time Zones

All times are in EDT time to prevent confusion due to time zone crossing. See the KAP17 flight status page for this flight to view local times or setup timezone preferences in your user account.

Time Position Orientation Groundspeed Altitude Reporting Facility
EDT Latitude Longitude Course Direction KTS MPH feet Rate Location/Type
04:03PM 42.3833 -71.0000 324° Northwest 120 138 600  Level KA90
04:04PM 42.4167 -71.0333 324° Northwest 132 152 1,300 720 Climbing KA90
04:05PM 42.4500 -71.0500 340° North 132 152 2,100 720 Climbing KA90
04:06PM 42.4833 -71.0667 340° North 132 152 2,900 660 Climbing KA90
04:07PM 42.5333 -71.0833 346° North 134 154 3,600 600 Climbing KA90
04:08PM 42.5500 -71.1000 324° Northwest 135 155 4,100 600 Climbing KA90
04:09PM 42.5833 -71.1333 324° Northwest 138 159 4,800 720 Climbing KA90
04:10PM 42.6167 -71.1667 324° Northwest 135 155 5,600 600 Climbing KA90
04:11PM 42.6500 -71.1833 340° North 141 162 6,000 180 Climbing KA90
04:12PM 42.7000 -71.2167 334° Northwest 164 189 6,000  Level KA90
04:13PM 42.7333 -71.2500 324° Northwest 158 182 6,000  Level KA90
04:14PM 42.7667 -71.3000 312° West 157 181 6,000  Level KA90
04:15PM 42.8000 -71.3333 324° Northwest 158 182 6,100  Climbing KA90
04:16PM 42.8333 -71.3667 324° Northwest 157 181 6,100 -60 Level KA90
04:17PM 42.8667 -71.4167 312° West 160 184 6,000 -60 Descending KA90
04:18PM 42.9000 -71.4500 324° Northwest 158 182 6,000  Level KA90
04:19PM 42.9333 -71.4833 324° Northwest 155 178 6,100 60 Climbing KA90
04:20PM 42.9511 -71.5183 305° West 165 190 6,100  Level Boston Center
04:21PM 42.9825 -71.5517 322° Northwest 165 190 6,100  Level Boston Center
04:22PM 43.0183 -71.5911 321° Northwest 165 190 6,100  Level Boston Center
04:23PM 43.0519 -71.6361 316° Northwest 170 196 6,100 -60 Level Boston Center
04:24PM 43.0897 -71.6781 321° Northwest 170 196 6,000 -60 Descending Boston Center
04:25PM 43.1192 -71.7119 320° Northwest 165 190 6,000  Level Boston Center
04:26PM 43.1528 -71.7542 318° Northwest 178 205 6,000  Level Boston Center
04:27PM 43.1822 -71.7881 320° Northwest 162 186 6,000  Level Boston Center
04:28PM 43.2200 -71.8361 317° Northwest 162 186 6,000  Level Boston Center
04:29PM 43.2514 -71.8700 322° Northwest 162 186 6,000  Level Boston Center
04:30PM 43.2892 -71.9153 319° Northwest 162 186 6,000 -120 Level Boston Center
04:31PM 43.3206 -71.9522 319° Northwest 162 186 5,800 -420 Descending Boston Center
04:32PM 43.3708 -72.0031 324° Northwest 169 194 5,200 -420 Descending Boston Center
04:33PM 43.4106 -72.0458 322° Northwest 174 200 5,000 -180 Descending Boston Center
04:34PM 43.4481 -72.0797 327° Northwest 174 200 4,900 -120 Descending Boston Center